IGO1871 VOMM-FMEE
Flight info
| Callsign | IGO1871 |
|---|---|
| Flight time | N/A |
| Altitude | 34000 |
| Route | TEGUT2B TEGUT DCT APAVU DCT PUTUR DCT RAMPU DCT HAPUR DCT OSERA DCT MUGBA/N0453F360 DCT RONJI DCT OMBAB DCT LEVLU DCT GESOD/N0446F380 DCT ETLID DCT OKMAR DCT NIBIS NIBIS2R |
| Aircraft | A320/M-SDE3FGHIRWY/LB1 |
Departure
| Time | N/A |
|---|---|
| Airport | Chennai International Airport (VOMM) |
Arrival
| Time | 2026-05-04 12:54 |
|---|---|
| Airport | Roland Garros Airport (FMEE) |
| Time | Latitude | Longitude | Altitude | Speed | Heading |
|---|---|---|---|---|---|
| 2026-05-04 12:30 | -20.80899 | 55.34355 | 3240 ft | 193 kts | 117° |
| 2026-05-04 12:31 | -20.81491 | 55.35618 | 3016 ft | 191 kts | 117° |
| 2026-05-04 12:31 | -20.82080 | 55.36875 | 2748 ft | 185 kts | 117° |
| 2026-05-04 12:31 | -20.82651 | 55.38093 | 2497 ft | 180 kts | 117° |
| 2026-05-04 12:31 | -20.83197 | 55.39256 | 2268 ft | 174 kts | 116° |
| 2026-05-04 12:32 | -20.83732 | 55.40397 | 2052 ft | 166 kts | 117° |
| 2026-05-04 12:32 | -20.84652 | 55.42361 | 1685 ft | 138 kts | 115° |
| 2026-05-04 12:32 | -20.85077 | 55.43267 | 1516 ft | 135 kts | 114° |
| 2026-05-04 12:33 | -20.85495 | 55.44161 | 1345 ft | 133 kts | 115° |
| 2026-05-04 12:33 | -20.85910 | 55.45046 | 1167 ft | 133 kts | 114° |
| 2026-05-04 12:33 | -20.86318 | 55.45918 | 986 ft | 132 kts | 112° |
| 2026-05-04 12:33 | -20.86726 | 55.46788 | 803 ft | 131 kts | 114° |
| 2026-05-04 12:34 | -20.87138 | 55.47670 | 640 ft | 132 kts | 114° |
| 2026-05-04 12:34 | -20.87552 | 55.48552 | 467 ft | 132 kts | 114° |
| 2026-05-04 12:34 | -20.87966 | 55.49430 | 308 ft | 132 kts | 114° |
| 2026-05-04 12:34 | -20.88372 | 55.50303 | 158 ft | 130 kts | 113° |
| 2026-05-04 12:35 | -20.88782 | 55.51130 | 83 ft | 117 kts | 116° |
| 2026-05-04 12:35 | -20.89212 | 55.51856 | 295 ft | 120 kts | 117° |
| 2026-05-04 12:35 | -20.89629 | 55.52617 | 699 ft | 122 kts | 115° |
| 2026-05-04 12:35 | -20.90098 | 55.53484 | 883 ft | 139 kts | 116° |
| 2026-05-04 12:36 | -20.90583 | 55.54394 | 1323 ft | 146 kts | 116° |
| 2026-05-04 12:36 | -20.91068 | 55.55413 | 1714 ft | 158 kts | 115° |
| 2026-05-04 12:36 | -20.91559 | 55.56395 | 2411 ft | 145 kts | 119° |
| 2026-05-04 12:36 | -20.92025 | 55.57359 | 2938 ft | 149 kts | 118° |
| 2026-05-04 12:37 | -20.92489 | 55.58362 | 3003 ft | 149 kts | 117° |
| 2026-05-04 12:37 | -20.92946 | 55.59354 | 3001 ft | 146 kts | 118° |
| 2026-05-04 12:37 | -20.93391 | 55.60321 | 3003 ft | 146 kts | 119° |
| 2026-05-04 12:37 | -20.93841 | 55.61300 | 3006 ft | 146 kts | 118° |
| 2026-05-04 12:38 | -20.94286 | 55.62274 | 3007 ft | 145 kts | 117° |
| 2026-05-04 12:38 | -20.94641 | 55.63287 | 3014 ft | 148 kts | 97° |
| 2026-05-04 12:38 | -20.94404 | 55.64330 | 3011 ft | 151 kts | 56° |
| 2026-05-04 12:38 | -20.93514 | 55.64957 | 3017 ft | 165 kts | 12° |
| 2026-05-04 12:39 | -20.92316 | 55.64702 | 3044 ft | 194 kts | 333° |
| 2026-05-04 12:39 | -20.91081 | 55.63979 | 3027 ft | 206 kts | 331° |
| 2026-05-04 12:39 | -20.89848 | 55.63224 | 3011 ft | 207 kts | 329° |
| 2026-05-04 12:39 | -20.88594 | 55.62448 | 3008 ft | 208 kts | 329° |
| 2026-05-04 12:40 | -20.87338 | 55.61672 | 3005 ft | 208 kts | 329° |
| 2026-05-04 12:40 | -20.86099 | 55.60912 | 3005 ft | 207 kts | 330° |
| 2026-05-04 12:40 | -20.84831 | 55.60140 | 3010 ft | 208 kts | 330° |
| 2026-05-04 12:40 | -20.83584 | 55.59386 | 3037 ft | 208 kts | 330° |
| 2026-05-04 12:41 | -20.82326 | 55.58626 | 3034 ft | 207 kts | 330° |
| 2026-05-04 12:41 | -20.81068 | 55.57866 | 3035 ft | 207 kts | 330° |
| 2026-05-04 12:41 | -20.79817 | 55.57111 | 3036 ft | 207 kts | 331° |
| 2026-05-04 12:41 | -20.78612 | 55.56294 | 3035 ft | 207 kts | 319° |
| 2026-05-04 12:42 | -20.77708 | 55.55109 | 3034 ft | 206 kts | 297° |
| 2026-05-04 12:42 | -20.77209 | 55.53677 | 3035 ft | 205 kts | 287° |
| 2026-05-04 12:42 | -20.76751 | 55.52258 | 3036 ft | 203 kts | 288° |
| 2026-05-04 12:42 | -20.76268 | 55.50828 | 3033 ft | 204 kts | 288° |
| 2026-05-04 12:43 | -20.75785 | 55.49404 | 3035 ft | 203 kts | 289° |
| 2026-05-04 12:43 | -20.75305 | 55.47986 | 3034 ft | 203 kts | 288° |
| 2026-05-04 12:43 | -20.74826 | 55.46563 | 3030 ft | 203 kts | 288° |
| 2026-05-04 12:43 | -20.74354 | 55.45165 | 3030 ft | 203 kts | 288° |
| 2026-05-04 12:44 | -20.73877 | 55.43748 | 3031 ft | 203 kts | 288° |
| 2026-05-04 12:44 | -20.73401 | 55.42328 | 3033 ft | 203 kts | 288° |
| 2026-05-04 12:44 | -20.72927 | 55.40907 | 3030 ft | 202 kts | 288° |
| 2026-05-04 12:44 | -20.72462 | 55.39513 | 3034 ft | 201 kts | 288° |
| 2026-05-04 12:45 | -20.71988 | 55.38094 | 3027 ft | 201 kts | 288° |
| 2026-05-04 12:45 | -20.71471 | 55.36698 | 3029 ft | 202 kts | 295° |
| 2026-05-04 12:45 | -20.70839 | 55.35380 | 3025 ft | 201 kts | 295° |
| 2026-05-04 12:45 | -20.70298 | 55.34001 | 3025 ft | 201 kts | 288° |
| 2026-05-04 12:46 | -20.69950 | 55.32552 | 3027 ft | 201 kts | 282° |
| 2026-05-04 12:46 | -20.69631 | 55.31117 | 3027 ft | 201 kts | 278° |
| 2026-05-04 12:46 | -20.69752 | 55.29665 | 3030 ft | 196 kts | 241° |
| 2026-05-04 12:46 | -20.70752 | 55.28769 | 3027 ft | 189 kts | 196° |
| 2026-05-04 12:47 | -20.72043 | 55.28497 | 3028 ft | 189 kts | 186° |
| 2026-05-04 12:47 | -20.73335 | 55.28348 | 3030 ft | 189 kts | 185° |
| 2026-05-04 12:47 | -20.74647 | 55.28218 | 3028 ft | 189 kts | 184° |
| 2026-05-04 12:47 | -20.75956 | 55.28084 | 3030 ft | 188 kts | 185° |
| 2026-05-04 12:48 | -20.77264 | 55.28009 | 3029 ft | 188 kts | 171° |
| 2026-05-04 12:48 | -20.78333 | 55.28710 | 3035 ft | 187 kts | 128° |
| 2026-05-04 12:48 | -20.79008 | 55.29901 | 3035 ft | 188 kts | 117° |
| 2026-05-04 12:48 | -20.79576 | 55.31164 | 3031 ft | 188 kts | 115° |
| 2026-05-04 12:49 | -20.80126 | 55.32432 | 3033 ft | 188 kts | 115° |
| 2026-05-04 12:49 | -20.80668 | 55.33670 | 3028 ft | 176 kts | 116° |
| 2026-05-04 12:49 | -20.81163 | 55.34782 | 3010 ft | 159 kts | 116° |
| 2026-05-04 12:49 | -20.81642 | 55.35839 | 2813 ft | 155 kts | 117° |
| 2026-05-04 12:50 | -20.82103 | 55.36848 | 2626 ft | 144 kts | 117° |
| 2026-05-04 12:50 | -20.82534 | 55.37791 | 2440 ft | 140 kts | 116° |
| 2026-05-04 12:50 | -20.82961 | 55.38724 | 2267 ft | 138 kts | 116° |
| 2026-05-04 12:50 | -20.83383 | 55.39648 | 2094 ft | 138 kts | 116° |
| 2026-05-04 12:51 | -20.83798 | 55.40554 | 1925 ft | 136 kts | 115° |
| 2026-05-04 12:51 | -20.84210 | 55.41461 | 1766 ft | 135 kts | 114° |
| 2026-05-04 12:51 | -20.84619 | 55.42360 | 1616 ft | 134 kts | 114° |
| 2026-05-04 12:51 | -20.85026 | 55.43254 | 1455 ft | 133 kts | 114° |
| 2026-05-04 12:52 | -20.85422 | 55.44127 | 1296 ft | 132 kts | 113° |
| 2026-05-04 12:52 | -20.85824 | 55.45013 | 1120 ft | 132 kts | 114° |
| 2026-05-04 12:52 | -20.86218 | 55.45885 | 949 ft | 128 kts | 113° |
| 2026-05-04 12:52 | -20.86635 | 55.46744 | 770 ft | 130 kts | 117° |
| 2026-05-04 12:53 | -20.87080 | 55.47572 | 634 ft | 129 kts | 118° |
| 2026-05-04 12:53 | -20.87505 | 55.48420 | 504 ft | 129 kts | 114° |
| 2026-05-04 12:53 | -20.87913 | 55.49285 | 371 ft | 130 kts | 114° |
| 2026-05-04 12:53 | -20.88305 | 55.50142 | 213 ft | 129 kts | 113° |
| 2026-05-04 12:54 | -20.88682 | 55.50989 | 56 ft | 115 kts | 116° |
| 2026-05-04 12:54 | -20.88912 | 55.51468 | 59 ft | 29 kts | 117° |
| 2026-05-04 12:54 | -20.88959 | 55.51565 | 59 ft | 15 kts | 118° |
| 2026-05-04 12:54 | -20.89011 | 55.51566 | 61 ft | 8 kts | 232° |
| 2026-05-04 12:55 | -20.89025 | 55.51526 | 63 ft | 4 kts | 251° |
| 2026-05-04 12:55 | -20.89030 | 55.51509 | 69 ft | 1 kts | 251° |
| 2026-05-04 12:55 | -20.89034 | 55.51496 | 72 ft | 2 kts | 251° |
| 2026-05-04 12:56 | -20.89038 | 55.51484 | 74 ft | 1 kts | 251° |
| 2026-05-04 12:56 | -20.89052 | 55.51439 | 75 ft | 13 kts | 252° |
| 2026-05-04 12:56 | -20.89049 | 55.51366 | 71 ft | 11 kts | 296° |
| 2026-05-04 12:56 | -20.89012 | 55.51287 | 72 ft | 13 kts | 296° |
| 2026-05-04 12:57 | -20.88967 | 55.51190 | 73 ft | 16 kts | 296° |
| 2026-05-04 12:57 | -20.88966 | 55.51145 | 72 ft | 6 kts | 207° |
| 2026-05-04 12:57 | -20.89002 | 55.51112 | 69 ft | 8 kts | 224° |
| 2026-05-04 12:57 | -20.89027 | 55.51098 | 71 ft | 2 kts | 205° |
| 2026-05-04 12:58 | -20.89036 | 55.51093 | 69 ft | 1 kts | 206° |
| 2026-05-04 12:58 | -20.89039 | 55.51091 | 68 ft | 0 kts | 206° |